Time;durP1;ratioP1;P1;durP2;ratioP2;P2;SDS_P1;SDS_P2;PMS_P1;PMS_P2;Temp;Humidity;BMP_temperature;BMP_pressure;BME280_temperature;BME280_humidity;BME280_pressure;Samples;Min_cycle;Max_cycle;Signal;HPM_P1;HPM_P2
2023/04/24 00:00:40;;;;;;;2.27;0.97;;;;;;;12.51;83.93;99450.16;6050781;28;20080;-73
2023/04/24 00:03:36;;;;;;;2.20;1.02;;;;;;;12.46;84.45;99465.88;6050324;28;20033;-74
2023/04/24 00:06:34;;;;;;;2.13;1.00;;;;;;;12.37;84.70;99467.81;6051107;28;20148;-73
2023/04/24 00:09:30;;;;;;;2.25;1.10;;;;;;;12.36;85.51;99457.38;6050372;28;20033;-74
2023/04/24 00:12:25;;;;;;;2.43;1.30;;;;;;;12.31;85.17;99462.44;6050635;28;20038;-71
2023/04/24 00:15:21;;;;;;;3.33;1.15;;;;;;;12.30;85.55;99474.06;6050689;28;20362;-73
2023/04/24 00:18:16;;;;;;;1.90;0.80;;;;;;;12.27;85.42;99458.50;6050587;28;20024;-73
2023/04/24 00:21:11;;;;;;;1.70;1.07;;;;;;;12.19;85.15;99446.16;6050391;28;20030;-73
2023/04/24 00:24:08;;;;;;;1.57;1.03;;;;;;;12.22;85.67;99456.41;6049862;28;20034;-74
2023/04/24 00:27:04;;;;;;;1.88;0.82;;;;;;;12.05;85.73;99443.50;6050350;28;20029;-74
2023/04/24 00:29:59;;;;;;;3.10;1.10;;;;;;;12.07;86.15;99452.13;6048453;28;20457;-71
2023/04/24 00:32:54;;;;;;;1.20;0.70;;;;;;;12.13;85.40;99467.31;6037127;28;20516;-72
2023/04/24 00:35:49;;;;;;;1.63;1.00;;;;;;;12.07;85.75;99463.56;6049351;28;20029;-74
2023/04/24 00:38:45;;;;;;;2.13;1.10;;;;;;;12.03;86.49;99462.31;6050145;28;20063;-73
2023/04/24 00:41:40;;;;;;;2.50;0.95;;;;;;;11.98;86.15;99450.59;6049675;28;20512;-73
2023/04/24 00:44:36;;;;;;;2.73;0.97;;;;;;;11.96;86.33;99444.66;6065857;28;20033;-72
2023/04/24 00:47:32;;;;;;;5.00;1.10;;;;;;;11.87;86.76;99452.72;6059423;28;20260;-73
2023/04/24 00:50:28;;;;;;;1.35;0.75;;;;;;;11.72;87.01;99438.63;6049908;28;20026;-72
2023/04/24 00:53:23;;;;;;;3.38;1.08;;;;;;;11.71;87.76;99447.59;6049141;28;20096;-73
2023/04/24 00:56:19;;;;;;;2.07;1.00;;;;;;;11.61;87.61;99441.72;6049514;28;20034;-73
2023/04/24 00:59:16;;;;;;;2.67;1.10;;;;;;;11.70;88.21;99461.88;6048361;28;20083;-74
2023/04/24 01:02:12;;;;;;;1.80;0.85;;;;;;;11.60;88.39;99463.16;6048528;28;20030;-74
2023/04/24 01:05:08;;;;;;;2.33;0.80;;;;;;;11.63;88.41;99460.94;6047681;28;20119;-74
2023/04/24 01:08:03;;;;;;;1.85;0.95;;;;;;;11.54;88.70;99459.38;6049854;28;20095;-74
2023/04/24 01:10:58;;;;;;;1.85;0.98;;;;;;;11.52;88.60;99461.41;6049642;28;20034;-73
2023/04/24 01:13:54;;;;;;;1.40;0.77;;;;;;;11.45;88.86;99457.00;6042934;28;20037;-73
2023/04/24 01:16:49;;;;;;;1.45;0.90;;;;;;;11.42;89.57;99455.53;6042791;28;20038;-74
2023/04/24 01:19:44;;;;;;;1.33;0.80;;;;;;;11.40;89.97;99456.72;6062061;28;20465;-73
2023/04/24 01:22:41;;;;;;;1.20;0.90;;;;;;;11.33;89.85;99443.38;6050193;28;20056;-74
2023/04/24 01:25:36;;;;;;;2.40;0.82;;;;;;;11.41;89.36;99448.59;6069993;28;20033;-73
2023/04/24 01:28:32;;;;;;;3.97;1.02;;;;;;;11.35;89.50;99430.72;6081969;28;20032;-73
2023/04/24 01:31:28;;;;;;;2.03;1.00;;;;;;;11.29;89.75;99434.94;6060758;28;20037;-73
2023/04/24 01:34:23;;;;;;;1.20;0.80;;;;;;;11.05;90.88;99413.97;6047516;28;20491;-73
2023/04/24 01:37:18;;;;;;;1.50;0.90;;;;;;;11.10;91.28;99453.22;6049603;28;20034;-73
2023/04/24 01:40:14;;;;;;;1.73;0.83;;;;;;;10.96;91.65;99440.72;6048479;28;20084;-72
2023/04/24 01:43:09;;;;;;;1.92;1.00;;;;;;;10.90;92.27;99446.78;6049446;28;20117;-73
2023/04/24 01:46:04;;;;;;;1.83;1.00;;;;;;;10.85;92.46;99449.13;6043983;28;20061;-75
2023/04/24 01:49:00;;;;;;;1.60;1.10;;;;;;;10.80;93.20;99446.19;6052420;28;20531;-72
2023/04/24 01:51:56;;;;;;;1.58;1.00;;;;;;;10.70;93.44;99441.97;6054075;28;20030;-72
2023/04/24 01:54:52;;;;;;;2.05;0.80;;;;;;;10.57;94.82;99444.38;6052906;28;20029;-73
2023/04/24 01:57:47;;;;;;;1.92;1.10;;;;;;;10.73;94.68;99460.13;6048792;28;20039;-74
2023/04/24 02:00:42;;;;;;;7.50;1.23;;;;;;;10.70;94.86;99465.81;6053130;28;20080;-73
2023/04/24 02:03:38;;;;;;;10.53;2.83;;;;;;;10.52;95.46;99441.41;6052502;28;20025;-73
2023/04/24 02:06:33;;;;;;;2.00;1.40;;;;;;;10.58;95.87;99459.28;6073075;28;20034;-72
2023/04/24 02:09:28;;;;;;;2.50;1.30;;;;;;;10.48;96.51;99434.00;6077303;28;20038;-72
2023/04/24 02:12:24;;;;;;;3.30;1.40;;;;;;;10.48;96.34;99448.09;6077148;28;20025;-72
2023/04/24 02:15:19;;;;;;;2.53;1.20;;;;;;;10.43;97.10;99439.03;6076523;28;20051;-72
2023/04/24 02:18:15;;;;;;;1.98;1.23;;;;;;;10.33;97.01;99441.88;6058183;28;20453;-72
2023/04/24 02:21:10;;;;;;;2.25;1.30;;;;;;;10.41;97.79;99457.72;6053254;28;20030;-71
2023/04/24 02:24:06;;;;;;;2.63;1.35;;;;;;;10.37;97.70;99451.16;6052185;28;20061;-73
2023/04/24 02:27:02;;;;;;;3.07;1.20;;;;;;;10.31;97.41;99440.41;6050705;28;20120;-72
2023/04/24 02:29:57;;;;;;;3.83;1.30;;;;;;;10.36;97.92;99454.78;6053123;28;20116;-70
2023/04/24 02:32:53;;;;;;;2.53;1.10;;;;;;;10.30;96.99;99428.97;6052795;28;20030;-71
2023/04/24 02:35:48;;;;;;;3.75;1.30;;;;;;;10.30;97.19;99428.97;6052530;28;20377;-72
2023/04/24 02:38:44;;;;;;;1.97;1.17;;;;;;;10.35;96.75;99445.22;6051330;28;20034;-71
2023/04/24 02:41:39;;;;;;;3.80;1.50;;;;;;;10.29;97.23;99448.56;6048152;28;20404;-73
2023/04/24 02:44:34;;;;;;;2.73;1.30;;;;;;;10.12;97.56;99434.56;6052060;28;20489;-73
2023/04/24 02:47:30;;;;;;;1.92;1.33;;;;;;;10.08;97.98;99443.03;6061894;28;20022;-73
2023/04/24 02:50:25;;;;;;;2.75;1.10;;;;;;;10.07;98.30;99444.84;6055738;28;20070;-73
2023/04/24 02:53:20;;;;;;;2.63;1.23;;;;;;;10.07;98.58;99449.31;6049900;28;20381;-72
2023/04/24 02:56:16;;;;;;;3.80;1.53;;;;;;;9.91;98.79;99425.56;6042970;28;20146;-73
2023/04/24 02:59:11;;;;;;;3.17;1.50;;;;;;;9.85;98.93;99423.59;6052050;28;20034;-73
2023/04/24 03:02:06;;;;;;;4.10;1.20;;;;;;;9.95;99.24;99445.38;6050732;28;20457;-73
2023/04/24 03:05:02;;;;;;;1.77;1.10;;;;;;;9.95;98.93;99437.44;6051714;28;20030;-74
2023/04/24 03:07:57;;;;;;;1.95;1.05;;;;;;;9.77;99.34;99416.53;6052006;28;20030;-73
2023/04/24 03:10:52;;;;;;;1.80;1.10;;;;;;;9.84;99.37;99428.06;6050970;28;20036;-73
2023/04/24 03:13:48;;;;;;;3.47;1.10;;;;;;;9.79;99.15;99424.28;6051533;28;20440;-72
2023/04/24 03:16:43;;;;;;;2.63;1.30;;;;;;;9.85;99.16;99440.31;6060586;28;20017;-73
2023/04/24 03:19:39;;;;;;;6.40;1.10;;;;;;;9.73;98.63;99420.50;6075582;28;20032;-73
2023/04/24 03:22:34;;;;;;;3.38;1.20;;;;;;;9.83;98.84;99444.97;6052162;28;20034;-73
2023/04/24 03:25:29;;;;;;;2.55;1.02;;;;;;;9.91;97.81;99438.78;6053997;28;20030;-73
2023/04/24 03:28:25;;;;;;;3.10;1.40;;;;;;;9.97;96.49;99433.63;6051414;28;20049;-72
2023/04/24 03:31:21;;;;;;;2.50;1.35;;;;;;;10.07;95.77;99439.53;6051428;28;20097;-72
2023/04/24 03:34:16;;;;;;;1.80;1.20;;;;;;;10.10;95.00;99441.00;6051049;28;20043;-72
2023/04/24 03:37:11;;;;;;;1.50;0.90;;;;;;;10.05;94.49;99430.94;6051174;28;20033;-73
2023/04/24 03:40:08;;;;;;;1.37;0.90;;;;;;;10.10;94.57;99443.66;6054336;28;20517;-74
2023/04/24 03:43:03;;;;;;;1.15;0.90;;;;;;;10.05;94.31;99435.41;6066051;28;20353;-73
2023/04/24 03:45:58;;;;;;;2.57;1.10;;;;;;;9.92;94.50;99424.56;6072654;28;20025;-73
2023/04/24 03:48:54;;;;;;;2.47;1.00;;;;;;;9.91;94.48;99428.22;6072396;28;20033;-73
2023/04/24 03:51:49;;;;;;;1.80;1.10;;;;;;;9.76;94.53;99411.38;6056505;28;20044;-70
2023/04/24 03:54:44;;;;;;;2.67;0.93;;;;;;;9.87;94.87;99426.88;6051878;28;20020;-73
2023/04/24 03:57:40;;;;;;;1.03;0.80;;;;;;;9.73;94.29;99417.84;6070531;28;20030;-73
2023/04/24 04:00:37;;;;;;;2.17;1.10;;;;;;;9.67;94.45;99431.81;6062096;28;20026;-72
2023/04/24 04:03:32;;;;;;;0.70;0.63;;;;;;;9.75;94.60;99423.00;6050454;28;20026;-74
2023/04/24 04:06:28;;;;;;;1.27;0.70;;;;;;;9.66;94.07;99422.19;6049115;28;20029;-73
2023/04/24 04:09:23;;;;;;;1.52;0.90;;;;;;;9.53;94.33;99406.03;6050382;28;20848;-72
2023/04/24 04:12:18;;;;;;;1.97;0.73;;;;;;;9.55;94.24;99404.03;6050838;28;20033;-73
2023/04/24 04:15:14;;;;;;;2.17;0.70;;;;;;;9.67;94.27;99420.38;6049546;28;20036;-72
2023/04/24 04:18:09;;;;;;;1.80;0.70;;;;;;;9.36;94.38;99418.50;6050248;28;20080;-74
2023/04/24 04:21:05;;;;;;;1.67;0.73;;;;;;;9.45;94.53;99428.06;6049757;28;20428;-72
2023/04/24 04:24:00;;;;;;;1.63;0.80;;;;;;;9.41;94.38;99431.22;6050009;28;20033;-74
2023/04/24 04:26:57;;;;;;;1.10;0.80;;;;;;;9.38;94.28;99424.44;6050807;28;20052;-73
2023/04/24 04:29:53;;;;;;;1.30;0.68;;;;;;;9.40;94.92;99430.38;6055707;28;20518;-74
2023/04/24 04:32:48;;;;;;;1.90;0.93;;;;;;;9.53;93.59;99441.28;6074266;28;20027;-74
2023/04/24 04:35:43;;;;;;;3.13;1.00;;;;;;;9.58;93.27;99430.16;6049011;28;20037;-72
2023/04/24 04:38:40;;;;;;;1.67;0.70;;;;;;;9.73;93.19;99441.69;6038755;28;20411;-72
2023/04/24 04:41:35;;;;;;;3.13;0.80;;;;;;;9.68;93.16;99424.66;6050057;28;20084;-73
2023/04/24 04:44:31;;;;;;;1.13;0.70;;;;;;;9.69;92.31;99424.50;6049344;28;20457;-73
2023/04/24 04:47:26;;;;;;;1.03;0.70;;;;;;;9.77;91.85;99434.22;6058673;28;20121;-73
2023/04/24 04:50:22;;;;;;;1.35;0.70;;;;;;;9.93;91.50;99442.09;6073685;28;20140;-70
2023/04/24 04:53:18;;;;;;;1.77;0.90;;;;;;;10.10;90.86;99448.97;6050851;28;20076;-74
2023/04/24 04:56:13;;;;;;;1.25;0.60;;;;;;;10.18;90.00;99441.00;6040067;28;20517;-73
2023/04/24 04:59:08;;;;;;;1.40;0.70;;;;;;;10.26;89.71;99442.75;6049872;28;20033;-74
2023/04/24 05:02:03;;;;;;;2.00;0.90;;;;;;;10.29;89.42;99447.72;6049707;28;20072;-71
2023/04/24 05:04:59;;;;;;;2.97;0.70;;;;;;;10.33;88.37;99444.53;6048847;28;20079;-72
2023/04/24 05:07:54;;;;;;;0.60;0.60;;;;;;;10.38;89.31;99434.22;6045445;28;20489;-73
2023/04/24 05:10:49;;;;;;;0.97;0.67;;;;;;;10.39;88.46;99427.94;6049370;28;20068;-71
2023/04/24 05:13:45;;;;;;;2.53;0.87;;;;;;;10.44;88.89;99438.84;6049279;28;20026;-72
2023/04/24 05:16:40;;;;;;;3.50;0.60;;;;;;;10.48;88.86;99434.00;6054171;28;20025;-73
2023/04/24 05:19:37;;;;;;;1.90;0.70;;;;;;;10.69;88.21;99450.06;6046180;28;20037;-72
2023/04/24 05:22:32;;;;;;;1.35;0.85;;;;;;;10.66;87.93;99451.25;6040025;28;20068;-73
2023/04/24 05:25:28;;;;;;;1.93;0.80;;;;;;;10.67;88.31;99447.63;6049050;28;20046;-73
2023/04/24 05:28:26;;;;;;;0.63;0.53;;;;;;;10.65;88.71;99439.00;6059818;28;20021;-75
2023/04/24 05:31:21;;;;;;;2.25;0.60;;;;;;;10.60;89.04;99425.44;6053810;28;20029;-74
2023/04/24 05:34:16;;;;;;;2.50;0.75;;;;;;;10.81;88.55;99447.84;6054003;28;20033;-75
2023/04/24 05:37:12;;;;;;;1.47;0.70;;;;;;;10.84;88.72;99443.00;6073308;28;20052;-74
2023/04/24 05:40:08;;;;;;;2.17;0.80;;;;;;;10.93;88.11;99435.78;6057321;28;20029;-75
2023/04/24 05:43:04;;;;;;;1.65;0.75;;;;;;;11.04;87.86;99435.34;6048841;28;20257;-75
2023/04/24 05:45:59;;;;;;;2.00;0.80;;;;;;;11.08;87.54;99449.91;6047937;28;20053;-72
2023/04/24 05:48:54;;;;;;;1.03;0.80;;;;;;;11.23;87.17;99438.31;6055618;28;20105;-74
2023/04/24 05:51:49;;;;;;;1.23;0.63;;;;;;;11.32;87.25;99431.09;6049084;28;20686;-74
2023/04/24 05:54:45;;;;;;;2.13;0.77;;;;;;;11.34;86.13;99416.63;6046963;28;20037;-72
2023/04/24 05:57:40;;;;;;;2.13;0.80;;;;;;;11.36;85.82;99437.66;6048008;28;20026;-75
2023/04/24 06:00:36;;;;;;;1.57;0.80;;;;;;;11.29;86.48;99452.69;6047325;28;20276;-73
2023/04/24 06:03:31;;;;;;;1.17;0.77;;;;;;;11.28;87.25;99451.03;6051425;28;20022;-73
2023/04/24 06:06:27;;;;;;;3.53;1.00;;;;;;;11.21;87.48;99434.19;6038887;28;20457;-73
2023/04/24 06:09:22;;;;;;;1.95;0.88;;;;;;;11.28;86.57;99445.72;6048488;28;20030;-72
2023/04/24 06:12:17;;;;;;;1.05;0.50;;;;;;;11.37;86.65;99449.94;6048545;28;20037;-73
2023/04/24 06:15:13;;;;;;;2.00;0.90;;;;;;;11.42;86.52;99458.19;6047752;28;20029;-71
2023/04/24 06:18:10;;;;;;;1.07;0.60;;;;;;;11.61;86.32;99456.81;6048678;28;20034;-73
2023/04/24 06:21:06;;;;;;;2.28;0.70;;;;;;;11.73;85.24;99450.91;6048248;28;20038;-73
2023/04/24 06:24:01;;;;;;;1.15;0.73;;;;;;;11.78;85.01;99442.38;6050842;28;20057;-73
2023/04/24 06:26:58;;;;;;;1.95;0.75;;;;;;;11.87;84.51;99466.00;6056015;28;20053;-73
2023/04/24 06:29:54;;;;;;;1.25;0.70;;;;;;;11.82;83.72;99455.09;6072311;28;20041;-73
2023/04/24 06:32:50;;;;;;;1.33;0.73;;;;;;;11.97;84.18;99457.75;6052278;28;20125;-73
2023/04/24 06:35:46;;;;;;;1.17;0.30;;;;;;;12.30;83.78;99453.63;6051404;28;20385;-74
2023/04/24 06:38:41;;;;;;;0.82;0.50;;;;;;;12.28;82.74;99454.84;6051995;28;20057;-72
2023/04/24 06:41:36;;;;;;;0.65;0.35;;;;;;;12.41;82.06;99470.94;6045720;28;20389;-74
2023/04/24 06:44:32;;;;;;;0.50;0.37;;;;;;;12.59;81.79;99449.22;6051278;28;20378;-75
2023/04/24 06:47:27;;;;;;;2.00;0.60;;;;;;;12.87;80.35;99460.75;6053552;28;20033;-74
2023/04/24 06:50:22;;;;;;;0.50;0.40;;;;;;;13.37;77.98;99465.06;6051989;28;20049;-73
2023/04/24 06:53:18;;;;;;;2.60;0.30;;;;;;;13.36;77.43;99466.06;6049025;28;20026;-74
2023/04/24 06:56:13;;;;;;;4.07;0.43;;;;;;;12.99;77.63;99449.38;6051504;28;20048;-73
2023/04/24 06:59:08;;;;;;;0.47;0.30;;;;;;;13.06;77.39;99444.94;6051479;28;20463;-75
2023/04/24 07:02:03;;;;;;;0.77;0.67;;;;;;;12.82;78.93;99460.50;6051394;28;20084;-73
2023/04/24 07:04:59;;;;;;;1.13;0.53;;;;;;;12.49;81.69;99470.81;6050953;28;20084;-74
2023/04/24 07:07:54;;;;;;;1.73;0.80;;;;;;;11.55;90.29;99490.22;6047172;28;20277;-71
2023/04/24 07:10:50;;;;;;;2.43;1.10;;;;;;;10.44;97.74;99483.88;6051324;28;20420;-73
2023/04/24 07:13:46;;;;;;;3.28;1.20;;;;;;;9.99;100.00;99489.06;6050499;28;20045;-71
2023/04/24 07:16:42;;;;;;;2.40;1.20;;;;;;;9.82;100.00;99483.00;6051119;28;20449;-72
2023/04/24 07:19:37;;;;;;;3.63;1.17;;;;;;;9.72;100.00;99489.50;6051121;28;20279;-73
2023/04/24 07:22:32;;;;;;;1.60;1.00;;;;;;;9.60;100.00;99483.75;6050668;28;20030;-71
2023/04/24 07:25:27;;;;;;;7.33;1.43;;;;;;;9.75;100.00;99508.53;6049293;28;20288;-72
2023/04/24 07:28:23;;;;;;;8.00;1.60;;;;;;;9.85;100.00;99503.84;6049700;28;20030;-75
2023/04/24 07:31:18;;;;;;;3.20;1.40;;;;;;;9.91;100.00;99489.09;6050299;28;20048;-71
2023/04/24 07:34:13;;;;;;;2.27;1.30;;;;;;;10.07;100.00;99512.88;6048819;28;20026;-71
2023/04/24 07:37:09;;;;;;;3.80;1.30;;;;;;;10.17;100.00;99494.97;6049990;28;20048;-71
2023/04/24 07:40:05;;;;;;;3.90;1.23;;;;;;;10.34;100.00;99503.66;6050677;28;20030;-71
2023/04/24 07:43:00;;;;;;;2.53;1.45;;;;;;;10.48;99.36;99500.25;6050349;28;20034;-71
2023/04/24 07:45:55;;;;;;;3.30;1.40;;;;;;;10.99;97.92;99504.88;6049948;28;20022;-72
2023/04/24 07:48:50;;;;;;;2.83;1.53;;;;;;;11.26;95.82;99508.78;6049764;28;20346;-71
2023/04/24 07:51:46;;;;;;;2.85;1.27;;;;;;;11.34;92.19;99514.84;6048850;28;20095;-72
2023/04/24 07:54:42;;;;;;;2.47;1.63;;;;;;;11.32;90.08;99519.50;6049489;28;20129;-73
2023/04/24 07:57:38;;;;;;;4.80;1.70;;;;;;;11.46;88.91;99533.81;6050116;28;20281;-73
2023/04/24 08:00:33;;;;;;;3.70;1.83;;;;;;;11.23;88.26;99535.66;6050474;28;20030;-74
2023/04/24 08:03:28;;;;;;;3.73;1.90;;;;;;;11.13;89.67;99533.28;6049326;28;20034;-74
2023/04/24 08:06:24;;;;;;;2.73;1.27;;;;;;;11.07;91.02;99535.81;6049777;28;20362;-74
2023/04/24 08:09:19;;;;;;;4.78;1.92;;;;;;;11.17;91.15;99536.41;6049960;28;20595;-72
2023/04/24 08:12:14;;;;;;;6.73;2.37;;;;;;;11.10;88.65;99548.72;6050347;28;20427;-74
2023/04/24 08:15:10;;;;;;;4.28;2.50;;;;;;;11.20;87.80;99555.44;6049908;28;20030;-73
2023/04/24 08:18:05;;;;;;;5.47;3.40;;;;;;;11.24;84.38;99551.44;6049667;28;20025;-74
2023/04/24 08:21:01;;;;;;;7.60;3.75;;;;;;;11.50;82.72;99553.66;6045224;28;20728;-73
2023/04/24 08:23:56;;;;;;;8.52;4.15;;;;;;;11.87;80.68;99537.72;6049677;28;20040;-74
2023/04/24 08:26:53;;;;;;;8.80;4.33;;;;;;;12.54;78.91;99553.50;6049732;28;20032;-72
2023/04/24 08:29:49;;;;;;;8.80;3.88;;;;;;;12.94;76.90;99552.06;6048664;28;20060;-72
2023/04/24 08:32:44;;;;;;;6.57;3.10;;;;;;;13.00;72.48;99562.81;6056184;28;20041;-72
2023/04/24 08:35:40;;;;;;;6.10;3.47;;;;;;;12.97;72.87;99557.84;6043972;28;20061;-72
2023/04/24 08:38:35;;;;;;;6.43;3.05;;;;;;;13.03;73.18;99558.94;6049531;28;20045;-73
2023/04/24 08:41:31;;;;;;;4.10;2.60;;;;;;;12.87;73.05;99559.19;6049371;28;20033;-72
2023/04/24 08:44:26;;;;;;;5.43;3.00;;;;;;;13.54;72.88;99571.09;6043255;28;20033;-72
2023/04/24 08:47:22;;;;;;;4.60;2.60;;;;;;;13.69;69.45;99561.19;6055117;28;20025;-73
2023/04/24 08:50:17;;;;;;;7.50;2.97;;;;;;;14.47;67.14;99556.50;6048982;28;20057;-71
2023/04/24 08:53:12;;;;;;;5.73;3.17;;;;;;;14.35;64.89;99553.56;6053408;28;20030;-72
2023/04/24 08:56:08;;;;;;;6.37;3.03;;;;;;;13.87;65.76;99565.16;6063750;28;20013;-72
2023/04/24 08:59:04;;;;;;;5.97;3.25;;;;;;;13.52;66.17;99561.66;6069148;28;20315;-72
2023/04/24 09:02:00;;;;;;;7.47;3.53;;;;;;;13.37;65.48;99567.06;6059286;28;20051;-72
2023/04/24 09:04:56;;;;;;;6.13;3.13;;;;;;;12.93;66.43;99567.25;6048648;28;20041;-72
2023/04/24 09:07:56;;;;;;;10.85;3.60;;;;;;;12.85;65.99;99548.75;6047386;28;20080;-72
2023/04/24 09:10:51;;;;;;;6.13;3.38;;;;;;;13.13;64.72;99561.31;6048197;28;20108;-72
2023/04/24 09:13:48;;;;;;;8.43;4.17;;;;;;;13.76;62.34;99542.56;6048286;28;20026;-73
2023/04/24 09:16:43;;;;;;;6.63;3.58;;;;;;;14.38;62.13;99550.50;6053605;28;20034;-72
2023/04/24 09:19:38;;;;;;;7.13;3.60;;;;;;;14.36;57.99;99555.22;6049427;28;20026;-72
2023/04/24 09:22:34;;;;;;;6.90;3.50;;;;;;;13.87;59.03;99550.00;6048598;28;20057;-72
2023/04/24 09:25:33;;;;;;;6.40;3.40;;;;;;;13.55;60.44;99558.59;6046500;28;20030;-72
2023/04/24 09:28:35;;;;;;;7.93;3.33;;;;;;;14.02;61.01;99552.56;6048917;28;20045;-73
2023/04/24 09:31:30;;;;;;;6.45;3.13;;;;;;;13.99;60.15;99556.47;6048284;28;20117;-73
2023/04/24 09:34:26;;;;;;;6.57;3.40;;;;;;;13.68;61.01;99558.69;6048323;28;20029;-72
2023/04/24 09:37:29;;;;;;;5.28;3.03;;;;;;;13.48;61.96;99560.41;6047263;28;20030;-72
2023/04/24 09:40:24;;;;;;;6.68;3.28;;;;;;;13.02;62.90;99558.09;6048498;28;20022;-72
2023/04/24 09:43:20;;;;;;;5.40;3.00;;;;;;;13.08;63.59;99570.69;6046229;28;20816;-73
2023/04/24 09:46:18;;;;;;;4.45;2.28;;;;;;;13.26;62.76;99566.75;6046427;28;20505;-73
2023/04/24 09:49:16;;;;;;;4.78;2.53;;;;;;;13.33;62.52;99568.47;6058493;28;20357;-73
2023/04/24 09:52:11;;;;;;;7.50;3.60;;;;;;;13.01;62.41;99559.13;6047341;28;20068;-73
2023/04/24 09:55:18;;;;;;;5.55;3.45;;;;;;;13.17;63.88;99587.38;6043914;28;20081;-72
2023/04/24 09:58:14;;;;;;;8.18;3.50;;;;;;;13.07;63.44;99574.34;6045184;28;20027;-71
2023/04/24 10:01:09;;;;;;;8.55;3.13;;;;;;;12.95;65.07;99565.22;6046986;28;20056;-73
2023/04/24 10:04:05;;;;;;;8.03;2.80;;;;;;;12.81;64.80;99573.22;6041115;28;20038;-73
2023/04/24 10:07:06;;;;;;;3.80;2.33;;;;;;;12.64;62.50;99587.78;6051497;28;20334;-72
2023/04/24 10:10:01;;;;;;;4.40;2.10;;;;;;;12.55;62.42;99568.47;6050025;28;20479;-72
2023/04/24 10:12:57;;;;;;;4.70;2.33;;;;;;;12.97;61.59;99573.00;6060076;28;20105;-72
2023/04/24 10:15:52;;;;;;;6.40;2.30;;;;;;;13.57;60.28;99572.53;6049171;28;20269;-72
2023/04/24 10:18:48;;;;;;;5.45;2.20;;;;;;;14.08;58.74;99539.25;6052085;28;20034;-71
2023/04/24 10:21:47;;;;;;;4.57;1.90;;;;;;;14.68;55.65;99562.53;6052197;28;20037;-72
2023/04/24 10:24:44;;;;;;;2.97;1.70;;;;;;;14.27;54.98;99565.19;6051123;28;20469;-71
2023/04/24 10:27:39;;;;;;;2.38;1.52;;;;;;;13.74;54.78;99576.56;6047505;28;20033;-72
2023/04/24 10:30:35;;;;;;;2.30;1.30;;;;;;;13.60;54.76;99572.16;6052066;28;20030;-72
2023/04/24 10:33:30;;;;;;;3.10;1.65;;;;;;;13.40;55.23;99585.31;6052848;28;20121;-73
2023/04/24 10:36:27;;;;;;;4.90;1.60;;;;;;;13.25;56.50;99567.78;6052026;28;20083;-74
2023/04/24 10:39:23;;;;;;;2.47;1.10;;;;;;;13.46;55.83;99578.41;6043852;28;20113;-73
2023/04/24 10:42:18;;;;;;;2.85;1.10;;;;;;;13.75;55.36;99580.06;6055789;28;20056;-73
2023/04/24 10:45:18;;;;;;;2.10;1.20;;;;;;;13.38;56.16;99592.69;6051226;28;20429;-72
2023/04/24 10:48:14;;;;;;;;;;;;;;;13.06;56.53;99594.00;6052430;28;20022;-73
2023/04/24 10:51:12;;;;;;;3.03;1.38;;;;;;;13.03;57.39;99599.69;6050723;28;20284;-72
2023/04/24 10:54:28;;;;;;;3.00;1.10;;;;;;;12.96;56.78;99595.31;6051320;28;20022;-74
2023/04/24 10:57:28;;;;;;;2.35;1.30;;;;;;;12.89;56.63;99595.22;6044227;28;20030;-71
2023/04/24 11:00:27;;;;;;;2.80;1.17;;;;;;;13.02;56.97;99587.38;6051942;28;20027;-73
2023/04/24 11:03:27;;;;;;;2.78;1.30;;;;;;;12.99;57.48;99586.97;6050870;28;20088;-72
2023/04/24 11:06:31;;;;;;;;;;;;;;;13.07;57.74;99608.97;6052030;28;20029;-73
2023/04/24 11:09:27;;;;;;;3.45;1.40;;;;;;;12.97;57.40;99605.75;6051407;28;19909;-72
2023/04/24 11:12:26;;;;;;;3.95;1.30;;;;;;;13.11;57.90;99602.25;6049086;28;20035;-73
2023/04/24 11:15:21;;;;;;;3.65;1.20;;;;;;;13.30;56.77;99584.00;6051138;28;20029;-73
2023/04/24 11:18:17;;;;;;;2.67;1.43;;;;;;;13.14;56.59;99598.38;6057684;28;20048;-73
2023/04/24 11:21:21;;;;;;;2.43;1.27;;;;;;;13.10;57.34;99595.28;6053159;28;20516;-72
2023/04/24 11:24:23;;;;;;;5.90;1.65;;;;;;;13.74;56.58;99581.91;6069380;28;20033;-73
2023/04/24 11:27:20;;;;;;;2.60;1.30;;;;;;;14.00;55.57;99582.06;6059401;28;20046;-73
2023/04/24 11:30:20;;;;;;;2.05;1.50;;;;;;;13.56;55.56;99581.56;6049498;28;20044;-73
2023/04/24 11:33:20;;;;;;;5.20;1.58;;;;;;;13.36;56.99;99585.91;6053366;28;20484;-73
2023/04/24 11:36:15;;;;;;;3.15;1.17;;;;;;;13.02;56.98;99598.03;6050497;28;20384;-73
2023/04/24 11:39:11;;;;;;;2.50;1.27;;;;;;;12.79;58.37;99617.84;6049242;28;20084;-73
2023/04/24 11:42:07;;;;;;;4.10;1.35;;;;;;;11.99;64.59;99608.97;6051173;28;20030;-73
2023/04/24 11:45:11;;;;;;;2.58;1.60;;;;;;;11.58;70.92;99616.47;6042577;28;20121;-73
2023/04/24 11:48:06;;;;;;;3.65;1.63;;;;;;;11.44;74.05;99626.06;6050697;28;20156;-73
2023/04/24 11:51:02;;;;;;;2.77;1.60;;;;;;;12.43;71.48;99613.31;6051101;28;20037;-73
2023/04/24 11:53:58;;;;;;;3.63;1.55;;;;;;;13.62;63.84;99607.41;6049426;28;20109;-72
2023/04/24 11:56:53;;;;;;;2.42;1.40;;;;;;;14.21;60.40;99597.97;6052960;28;20369;-73
2023/04/24 11:59:49;;;;;;;3.53;1.40;;;;;;;14.36;57.52;99578.41;6057747;28;20053;-73
2023/04/24 12:02:44;;;;;;;5.30;1.42;;;;;;;14.09;57.72;99580.06;6049683;28;20096;-72
2023/04/24 12:05:40;;;;;;;4.28;1.50;;;;;;;13.68;58.68;99583.50;6054526;28;20088;-72
2023/04/24 12:08:35;;;;;;;4.93;1.40;;;;;;;13.37;61.33;99600.88;6062531;28;20065;-71
2023/04/24 12:11:31;;;;;;;3.90;1.00;;;;;;;13.30;60.13;99594.63;6055884;28;20041;-72
2023/04/24 12:14:26;;;;;;;2.50;1.10;;;;;;;12.80;62.50;99609.66;6049054;28;20026;-72
2023/04/24 12:17:30;;;;;;;3.40;1.10;;;;;;;12.16;69.11;99603.31;6047156;28;20129;-74
2023/04/24 12:20:29;;;;;;;2.40;1.20;;;;;;;11.70;71.60;99621.22;6049546;28;20338;-73
2023/04/24 12:23:35;;;;;;;3.22;1.40;;;;;;;11.46;75.74;99608.16;6048895;28;20066;-72
2023/04/24 12:26:30;;;;;;;3.80;1.80;;;;;;;11.39;77.58;99633.72;6049584;28;20045;-73
2023/04/24 12:29:26;;;;;;;2.47;1.20;;;;;;;11.43;77.25;99602.34;6049457;28;20022;-72
2023/04/24 12:32:21;;;;;;;2.42;1.13;;;;;;;11.92;73.06;99609.72;6049146;28;20036;-72
2023/04/24 12:35:21;;;;;;;1.87;1.10;;;;;;;12.49;69.76;99603.75;6044299;28;20057;-74
2023/04/24 12:38:23;;;;;;;2.03;1.17;;;;;;;12.52;66.39;99595.41;6047085;28;20557;-73
2023/04/24 12:41:19;;;;;;;2.08;0.85;;;;;;;12.56;65.85;99596.69;6046538;28;20025;-72
2023/04/24 12:44:15;;;;;;;2.42;1.30;;;;;;;12.38;67.16;99612.22;6048021;28;20033;-73
2023/04/24 12:47:11;;;;;;;2.20;1.30;;;;;;;12.15;67.16;99608.84;6050942;28;20531;-72
2023/04/24 12:50:08;;;;;;;1.80;1.00;;;;;;;11.98;70.80;99624.13;6048187;28;20416;-75
2023/04/24 12:53:04;;;;;;;3.67;1.30;;;;;;;11.71;77.08;99638.00;6049576;28;20030;-75
2023/04/24 12:55:59;;;;;;;2.33;1.10;;;;;;;11.10;80.31;99657.50;6048587;28;20087;-74
2023/04/24 12:58:54;;;;;;;2.63;1.00;;;;;;;10.59;80.68;99667.72;6049276;28;20432;-74
2023/04/24 13:01:50;;;;;;;2.57;0.90;;;;;;;10.39;81.56;99681.50;6048078;28;20026;-73
2023/04/24 13:04:46;;;;;;;0.82;0.70;;;;;;;10.12;82.73;99690.66;6051985;28;20748;-73
2023/04/24 13:07:41;;;;;;;1.33;1.05;;;;;;;9.96;84.33;99683.56;6051642;28;20029;-74
2023/04/24 13:10:37;;;;;;;1.43;0.90;;;;;;;10.01;84.31;99680.41;6049325;28;20056;-73
2023/04/24 13:13:32;;;;;;;1.97;1.30;;;;;;;10.27;84.85;99667.81;6048120;28;20022;-74
2023/04/24 13:16:27;;;;;;;3.40;1.43;;;;;;;10.41;82.75;99651.19;6048636;28;20724;-74
2023/04/24 13:19:26;;;;;;;1.77;1.07;;;;;;;10.77;80.57;99664.81;6048620;28;20048;-73
2023/04/24 13:22:21;;;;;;;1.77;1.20;;;;;;;11.10;78.82;99655.66;6055348;28;20045;-75
2023/04/24 13:25:17;;;;;;;2.03;1.23;;;;;;;11.54;77.27;99665.66;6046615;28;20026;-72
2023/04/24 13:28:13;;;;;;;2.08;1.40;;;;;;;11.36;73.91;99663.28;6048821;28;20272;-74
2023/04/24 13:31:08;;;;;;;3.23;1.30;;;;;;;11.40;76.04;99680.53;6047982;28;20693;-73
2023/04/24 13:34:03;;;;;;;2.60;1.40;;;;;;;11.26;73.47;99665.34;6048165;28;20038;-72
2023/04/24 13:36:59;;;;;;;3.33;1.33;;;;;;;11.25;73.46;99669.03;6043909;28;20030;-72
2023/04/24 13:39:54;;;;;;;3.15;1.20;;;;;;;11.27;73.92;99683.78;6050611;28;20037;-71
2023/04/24 13:42:49;;;;;;;2.03;1.00;;;;;;;11.12;72.79;99684.66;6053828;28;20091;-74
2023/04/24 13:49:36;;;;;;;2.70;1.00;;;;;;;10.56;74.48;99699.84;6068186;28;20014;-72
2023/04/24 13:52:32;;;;;;;2.53;1.63;;;;;;;10.31;76.37;99710.69;6067258;28;20109;-71